sensor_id;sensor_type;location;lat;lon;timestamp;P1;durP1;ratioP1;P2;durP2;ratioP2
23720;SDS011;42950;52.134;5.578;2023-06-26T00:00:26;15.45;;;12.30;;
23720;SDS011;42950;52.134;5.578;2023-06-26T00:02:51;11.85;;;10.65;;
23720;SDS011;42950;52.134;5.578;2023-06-26T00:05:17;11.75;;;10.50;;
23720;SDS011;42950;52.134;5.578;2023-06-26T00:07:43;12.52;;;10.98;;
23720;SDS011;42950;52.134;5.578;2023-06-26T00:10:08;12.18;;;10.98;;
23720;SDS011;42950;52.134;5.578;2023-06-26T00:12:34;13.23;;;11.05;;
23720;SDS011;42950;52.134;5.578;2023-06-26T00:14:59;11.45;;;9.82;;
23720;SDS011;42950;52.134;5.578;2023-06-26T00:17:25;10.82;;;9.73;;
23720;SDS011;42950;52.134;5.578;2023-06-26T00:19:51;13.63;;;10.70;;
23720;SDS011;42950;52.134;5.578;2023-06-26T00:22:17;12.48;;;10.05;;
23720;SDS011;42950;52.134;5.578;2023-06-26T00:24:43;11.27;;;10.18;;
23720;SDS011;42950;52.134;5.578;2023-06-26T00:27:12;11.88;;;10.73;;
23720;SDS011;42950;52.134;5.578;2023-06-26T00:29:37;11.93;;;10.82;;
23720;SDS011;42950;52.134;5.578;2023-06-26T00:32:03;14.45;;;11.60;;
23720;SDS011;42950;52.134;5.578;2023-06-26T00:34:29;12.98;;;11.77;;
23720;SDS011;42950;52.134;5.578;2023-06-26T00:36:55;14.02;;;12.60;;
23720;SDS011;42950;52.134;5.578;2023-06-26T00:39:20;13.88;;;12.55;;
23720;SDS011;42950;52.134;5.578;2023-06-26T00:41:46;12.93;;;11.15;;
23720;SDS011;42950;52.134;5.578;2023-06-26T00:44:12;12.60;;;11.38;;
23720;SDS011;42950;52.134;5.578;2023-06-26T00:46:38;13.38;;;12.07;;
23720;SDS011;42950;52.134;5.578;2023-06-26T00:49:03;12.40;;;11.20;;
23720;SDS011;42950;52.134;5.578;2023-06-26T00:51:29;13.02;;;11.73;;
23720;SDS011;42950;52.134;5.578;2023-06-26T00:53:56;11.98;;;10.88;;
23720;SDS011;42950;52.134;5.578;2023-06-26T00:56:22;13.35;;;11.30;;
23720;SDS011;42950;52.134;5.578;2023-06-26T00:58:48;13.07;;;11.80;;
23720;SDS011;42950;52.134;5.578;2023-06-26T01:01:14;13.02;;;11.05;;
23720;SDS011;42950;52.134;5.578;2023-06-26T01:03:42;11.35;;;10.27;;
23720;SDS011;42950;52.134;5.578;2023-06-26T01:06:09;13.10;;;11.63;;
23720;SDS011;42950;52.134;5.578;2023-06-26T01:08:38;13.18;;;11.77;;
23720;SDS011;42950;52.134;5.578;2023-06-26T01:11:06;11.70;;;10.52;;
23720;SDS011;42950;52.134;5.578;2023-06-26T01:13:32;13.15;;;11.75;;
23720;SDS011;42950;52.134;5.578;2023-06-26T01:15:59;13.45;;;11.60;;
23720;SDS011;42950;52.134;5.578;2023-06-26T01:18:26;12.50;;;11.27;;
23720;SDS011;42950;52.134;5.578;2023-06-26T01:20:52;13.15;;;11.68;;
23720;SDS011;42950;52.134;5.578;2023-06-26T01:23:28;12.75;;;11.45;;
23720;SDS011;42950;52.134;5.578;2023-06-26T01:28:47;11.77;;;10.60;;
23720;SDS011;42950;52.134;5.578;2023-06-26T01:31:15;12.60;;;9.88;;
23720;SDS011;42950;52.134;5.578;2023-06-26T01:33:42;11.75;;;10.13;;
23720;SDS011;42950;52.134;5.578;2023-06-26T01:36:08;12.80;;;9.77;;
23720;SDS011;42950;52.134;5.578;2023-06-26T01:38:35;10.85;;;9.68;;
23720;SDS011;42950;52.134;5.578;2023-06-26T01:41:01;10.95;;;9.95;;
23720;SDS011;42950;52.134;5.578;2023-06-26T01:43:31;10.00;;;8.90;;
23720;SDS011;42950;52.134;5.578;2023-06-26T01:46:42;10.02;;;9.07;;
23720;SDS011;42950;52.134;5.578;2023-06-26T01:52:21;11.23;;;8.63;;
23720;SDS011;42950;52.134;5.578;2023-06-26T01:58:14;12.18;;;8.95;;
23720;SDS011;42950;52.134;5.578;2023-06-26T02:00:42;9.35;;;8.23;;
23720;SDS011;42950;52.134;5.578;2023-06-26T02:03:08;12.00;;;8.27;;
23720;SDS011;42950;52.134;5.578;2023-06-26T02:05:34;8.98;;;7.93;;
23720;SDS011;42950;52.134;5.578;2023-06-26T02:07:59;8.32;;;7.53;;
23720;SDS011;42950;52.134;5.578;2023-06-26T02:10:27;11.68;;;7.82;;
23720;SDS011;42950;52.134;5.578;2023-06-26T02:12:53;8.15;;;7.20;;
23720;SDS011;42950;52.134;5.578;2023-06-26T02:15:18;8.77;;;7.88;;
23720;SDS011;42950;52.134;5.578;2023-06-26T02:17:44;9.65;;;7.38;;
23720;SDS011;42950;52.134;5.578;2023-06-26T02:20:13;7.70;;;7.00;;
23720;SDS011;42950;52.134;5.578;2023-06-26T02:22:39;9.07;;;8.13;;
23720;SDS011;42950;52.134;5.578;2023-06-26T02:25:04;10.15;;;7.53;;
23720;SDS011;42950;52.134;5.578;2023-06-26T02:27:30;9.15;;;6.75;;
23720;SDS011;42950;52.134;5.578;2023-06-26T02:29:56;8.73;;;6.85;;
23720;SDS011;42950;52.134;5.578;2023-06-26T02:32:21;9.18;;;7.05;;
23720;SDS011;42950;52.134;5.578;2023-06-26T02:34:47;8.82;;;6.50;;
23720;SDS011;42950;52.134;5.578;2023-06-26T02:37:13;10.45;;;6.80;;
23720;SDS011;42950;52.134;5.578;2023-06-26T02:39:38;6.85;;;6.15;;
23720;SDS011;42950;52.134;5.578;2023-06-26T02:42:04;7.72;;;6.18;;
23720;SDS011;42950;52.134;5.578;2023-06-26T02:44:30;6.78;;;6.07;;
23720;SDS011;42950;52.134;5.578;2023-06-26T02:46:55;8.20;;;5.90;;
23720;SDS011;42950;52.134;5.578;2023-06-26T02:49:21;12.70;;;5.90;;
23720;SDS011;42950;52.134;5.578;2023-06-26T02:51:46;8.73;;;6.13;;
23720;SDS011;42950;52.134;5.578;2023-06-26T02:54:12;10.07;;;6.15;;
23720;SDS011;42950;52.134;5.578;2023-06-26T02:56:38;12.13;;;6.15;;
23720;SDS011;42950;52.134;5.578;2023-06-26T02:59:03;7.93;;;5.32;;
23720;SDS011;42950;52.134;5.578;2023-06-26T03:01:29;9.02;;;5.18;;
23720;SDS011;42950;52.134;5.578;2023-06-26T03:03:55;8.35;;;5.65;;
23720;SDS011;42950;52.134;5.578;2023-06-26T03:06:20;10.25;;;5.38;;
23720;SDS011;42950;52.134;5.578;2023-06-26T03:08:46;7.22;;;5.40;;
23720;SDS011;42950;52.134;5.578;2023-06-26T03:11:12;8.85;;;5.60;;
23720;SDS011;42950;52.134;5.578;2023-06-26T03:13:37;10.80;;;5.53;;
23720;SDS011;42950;52.134;5.578;2023-06-26T03:16:03;13.95;;;5.60;;
23720;SDS011;42950;52.134;5.578;2023-06-26T03:18:29;10.93;;;5.57;;
23720;SDS011;42950;52.134;5.578;2023-06-26T03:20:55;8.38;;;5.15;;
23720;SDS011;42950;52.134;5.578;2023-06-26T03:23:22;13.25;;;5.80;;
23720;SDS011;42950;52.134;5.578;2023-06-26T03:25:48;10.40;;;4.90;;
23720;SDS011;42950;52.134;5.578;2023-06-26T03:28:14;12.32;;;5.82;;
23720;SDS011;42950;52.134;5.578;2023-06-26T03:30:40;13.10;;;6.00;;
23720;SDS011;42950;52.134;5.578;2023-06-26T03:33:05;10.68;;;5.22;;
23720;SDS011;42950;52.134;5.578;2023-06-26T03:35:31;11.85;;;5.63;;
23720;SDS011;42950;52.134;5.578;2023-06-26T03:37:57;13.13;;;5.82;;
23720;SDS011;42950;52.134;5.578;2023-06-26T03:40:23;12.95;;;5.75;;
23720;SDS011;42950;52.134;5.578;2023-06-26T03:42:48;15.07;;;5.72;;
23720;SDS011;42950;52.134;5.578;2023-06-26T03:45:14;12.43;;;5.60;;
23720;SDS011;42950;52.134;5.578;2023-06-26T03:47:40;14.00;;;5.22;;
23720;SDS011;42950;52.134;5.578;2023-06-26T03:50:05;12.05;;;5.60;;
23720;SDS011;42950;52.134;5.578;2023-06-26T03:52:31;10.90;;;5.32;;
23720;SDS011;42950;52.134;5.578;2023-06-26T03:54:57;9.35;;;5.47;;
23720;SDS011;42950;52.134;5.578;2023-06-26T03:57:23;10.80;;;5.63;;
23720;SDS011;42950;52.134;5.578;2023-06-26T03:59:48;12.05;;;5.47;;
23720;SDS011;42950;52.134;5.578;2023-06-26T04:02:15;14.57;;;5.70;;
23720;SDS011;42950;52.134;5.578;2023-06-26T04:04:40;13.90;;;5.63;;
23720;SDS011;42950;52.134;5.578;2023-06-26T04:07:06;12.63;;;5.47;;
23720;SDS011;42950;52.134;5.578;2023-06-26T04:09:31;13.82;;;5.78;;
23720;SDS011;42950;52.134;5.578;2023-06-26T04:11:57;17.67;;;5.70;;
23720;SDS011;42950;52.134;5.578;2023-06-26T04:14:22;12.13;;;5.93;;
23720;SDS011;42950;52.134;5.578;2023-06-26T04:16:48;13.68;;;6.15;;
23720;SDS011;42950;52.134;5.578;2023-06-26T04:19:14;19.75;;;5.75;;
23720;SDS011;42950;52.134;5.578;2023-06-26T04:21:40;16.85;;;6.30;;
23720;SDS011;42950;52.134;5.578;2023-06-26T04:24:06;20.70;;;6.35;;
23720;SDS011;42950;52.134;5.578;2023-06-26T04:26:32;12.43;;;5.18;;
23720;SDS011;42950;52.134;5.578;2023-06-26T04:28:58;15.05;;;5.60;;
23720;SDS011;42950;52.134;5.578;2023-06-26T04:31:24;14.98;;;5.75;;
23720;SDS011;42950;52.134;5.578;2023-06-26T04:33:50;14.65;;;5.32;;
23720;SDS011;42950;52.134;5.578;2023-06-26T04:36:16;17.75;;;5.38;;
23720;SDS011;42950;52.134;5.578;2023-06-26T04:38:43;12.70;;;5.47;;
23720;SDS011;42950;52.134;5.578;2023-06-26T04:41:08;14.98;;;5.55;;
23720;SDS011;42950;52.134;5.578;2023-06-26T04:43:34;15.52;;;5.70;;
23720;SDS011;42950;52.134;5.578;2023-06-26T04:45:59;15.18;;;5.90;;
23720;SDS011;42950;52.134;5.578;2023-06-26T04:48:27;16.48;;;6.35;;
23720;SDS011;42950;52.134;5.578;2023-06-26T04:50:53;15.05;;;5.53;;
23720;SDS011;42950;52.134;5.578;2023-06-26T04:53:22;13.88;;;5.70;;
23720;SDS011;42950;52.134;5.578;2023-06-26T04:55:48;15.98;;;5.47;;
23720;SDS011;42950;52.134;5.578;2023-06-26T04:58:14;17.90;;;6.32;;
23720;SDS011;42950;52.134;5.578;2023-06-26T05:00:40;14.50;;;5.65;;
23720;SDS011;42950;52.134;5.578;2023-06-26T05:03:07;19.67;;;5.43;;
23720;SDS011;42950;52.134;5.578;2023-06-26T05:05:40;18.45;;;5.78;;
23720;SDS011;42950;52.134;5.578;2023-06-26T05:08:18;17.25;;;5.20;;
23720;SDS011;42950;52.134;5.578;2023-06-26T05:10:46;14.90;;;5.40;;
23720;SDS011;42950;52.134;5.578;2023-06-26T05:13:12;12.43;;;5.75;;
23720;SDS011;42950;52.134;5.578;2023-06-26T05:15:40;17.17;;;5.50;;
23720;SDS011;42950;52.134;5.578;2023-06-26T05:18:07;17.38;;;5.80;;
23720;SDS011;42950;52.134;5.578;2023-06-26T05:20:33;14.82;;;5.10;;
23720;SDS011;42950;52.134;5.578;2023-06-26T05:23:01;10.35;;;4.93;;
23720;SDS011;42950;52.134;5.578;2023-06-26T05:25:27;14.85;;;5.00;;
23720;SDS011;42950;52.134;5.578;2023-06-26T05:27:57;10.80;;;4.75;;
23720;SDS011;42950;52.134;5.578;2023-06-26T05:30:24;11.75;;;4.80;;
23720;SDS011;42950;52.134;5.578;2023-06-26T05:32:51;15.63;;;4.68;;
23720;SDS011;42950;52.134;5.578;2023-06-26T05:35:17;15.27;;;4.40;;
23720;SDS011;42950;52.134;5.578;2023-06-26T05:37:44;11.80;;;4.22;;
23720;SDS011;42950;52.134;5.578;2023-06-26T05:40:12;13.05;;;4.28;;
23720;SDS011;42950;52.134;5.578;2023-06-26T05:42:38;12.20;;;4.68;;
23720;SDS011;42950;52.134;5.578;2023-06-26T05:45:04;9.38;;;4.28;;
23720;SDS011;42950;52.134;5.578;2023-06-26T05:47:30;15.35;;;4.35;;
23720;SDS011;42950;52.134;5.578;2023-06-26T05:49:56;10.77;;;4.43;;
23720;SDS011;42950;52.134;5.578;2023-06-26T05:52:21;8.15;;;4.00;;
23720;SDS011;42950;52.134;5.578;2023-06-26T05:54:47;8.60;;;4.15;;
23720;SDS011;42950;52.134;5.578;2023-06-26T05:57:13;12.50;;;4.05;;
23720;SDS011;42950;52.134;5.578;2023-06-26T05:59:40;9.27;;;3.90;;
23720;SDS011;42950;52.134;5.578;2023-06-26T06:02:07;9.35;;;3.90;;
23720;SDS011;42950;52.134;5.578;2023-06-26T06:04:33;6.53;;;3.35;;
23720;SDS011;42950;52.134;5.578;2023-06-26T06:07:00;7.20;;;3.38;;
23720;SDS011;42950;52.134;5.578;2023-06-26T06:09:25;10.25;;;3.55;;
23720;SDS011;42950;52.134;5.578;2023-06-26T06:11:51;8.05;;;3.30;;
23720;SDS011;42950;52.134;5.578;2023-06-26T06:14:16;6.32;;;2.95;;
23720;SDS011;42950;52.134;5.578;2023-06-26T06:16:42;4.47;;;2.80;;
23720;SDS011;42950;52.134;5.578;2023-06-26T06:19:07;6.35;;;2.95;;
23720;SDS011;42950;52.134;5.578;2023-06-26T06:21:36;5.20;;;3.30;;
23720;SDS011;42950;52.134;5.578;2023-06-26T06:24:01;5.65;;;2.63;;
23720;SDS011;42950;52.134;5.578;2023-06-26T06:26:28;8.45;;;3.00;;
23720;SDS011;42950;52.134;5.578;2023-06-26T06:28:53;6.45;;;2.83;;
23720;SDS011;42950;52.134;5.578;2023-06-26T06:31:19;8.20;;;2.80;;
23720;SDS011;42950;52.134;5.578;2023-06-26T06:33:45;6.22;;;2.67;;
23720;SDS011;42950;52.134;5.578;2023-06-26T06:36:10;6.43;;;2.80;;
23720;SDS011;42950;52.134;5.578;2023-06-26T06:38:36;6.20;;;2.70;;
23720;SDS011;42950;52.134;5.578;2023-06-26T06:41:01;4.85;;;2.58;;
23720;SDS011;42950;52.134;5.578;2023-06-26T06:43:27;4.35;;;2.33;;
23720;SDS011;42950;52.134;5.578;2023-06-26T06:45:52;8.48;;;2.67;;
23720;SDS011;42950;52.134;5.578;2023-06-26T06:48:18;4.85;;;2.40;;
23720;SDS011;42950;52.134;5.578;2023-06-26T06:50:43;6.05;;;2.40;;
23720;SDS011;42950;52.134;5.578;2023-06-26T06:53:09;8.65;;;2.50;;
23720;SDS011;42950;52.134;5.578;2023-06-26T06:55:34;5.57;;;2.35;;
23720;SDS011;42950;52.134;5.578;2023-06-26T06:58:00;8.75;;;2.65;;
23720;SDS011;42950;52.134;5.578;2023-06-26T07:00:25;4.75;;;2.50;;
23720;SDS011;42950;52.134;5.578;2023-06-26T07:02:51;5.38;;;2.50;;
23720;SDS011;42950;52.134;5.578;2023-06-26T07:05:18;6.32;;;2.70;;
23720;SDS011;42950;52.134;5.578;2023-06-26T07:07:44;6.40;;;2.53;;
23720;SDS011;42950;52.134;5.578;2023-06-26T07:10:12;6.15;;;2.97;;
23720;SDS011;42950;52.134;5.578;2023-06-26T07:12:39;5.25;;;2.50;;
23720;SDS011;42950;52.134;5.578;2023-06-26T07:15:05;6.50;;;2.80;;
23720;SDS011;42950;52.134;5.578;2023-06-26T07:17:32;3.97;;;2.42;;
23720;SDS011;42950;52.134;5.578;2023-06-26T07:19:59;5.93;;;2.50;;
23720;SDS011;42950;52.134;5.578;2023-06-26T07:22:26;4.43;;;2.55;;
23720;SDS011;42950;52.134;5.578;2023-06-26T07:24:51;3.92;;;2.65;;
23720;SDS011;42950;52.134;5.578;2023-06-26T07:27:17;7.93;;;2.65;;
23720;SDS011;42950;52.134;5.578;2023-06-26T07:29:44;7.18;;;2.78;;
23720;SDS011;42950;52.134;5.578;2023-06-26T07:32:09;4.72;;;2.45;;
23720;SDS011;42950;52.134;5.578;2023-06-26T07:34:35;5.80;;;2.70;;
23720;SDS011;42950;52.134;5.578;2023-06-26T07:37:01;5.70;;;2.80;;
23720;SDS011;42950;52.134;5.578;2023-06-26T07:39:26;5.53;;;2.40;;
23720;SDS011;42950;52.134;5.578;2023-06-26T07:41:52;6.80;;;2.55;;
23720;SDS011;42950;52.134;5.578;2023-06-26T07:44:19;7.20;;;2.72;;
23720;SDS011;42950;52.134;5.578;2023-06-26T07:46:44;7.53;;;3.10;;
23720;SDS011;42950;52.134;5.578;2023-06-26T07:49:10;8.32;;;3.00;;
23720;SDS011;42950;52.134;5.578;2023-06-26T07:51:36;6.93;;;3.05;;
23720;SDS011;42950;52.134;5.578;2023-06-26T07:54:02;6.47;;;3.08;;
23720;SDS011;42950;52.134;5.578;2023-06-26T07:56:29;7.68;;;3.03;;
23720;SDS011;42950;52.134;5.578;2023-06-26T07:58:55;8.27;;;3.33;;
23720;SDS011;42950;52.134;5.578;2023-06-26T08:01:23;4.82;;;3.17;;
23720;SDS011;42950;52.134;5.578;2023-06-26T08:03:49;5.38;;;3.03;;
23720;SDS011;42950;52.134;5.578;2023-06-26T08:06:15;7.95;;;2.90;;
23720;SDS011;42950;52.134;5.578;2023-06-26T08:08:41;8.32;;;3.20;;
23720;SDS011;42950;52.134;5.578;2023-06-26T08:11:06;8.88;;;3.30;;
23720;SDS011;42950;52.134;5.578;2023-06-26T08:13:33;4.88;;;2.72;;
23720;SDS011;42950;52.134;5.578;2023-06-26T08:15:59;7.72;;;2.60;;
23720;SDS011;42950;52.134;5.578;2023-06-26T08:18:24;7.97;;;2.78;;
23720;SDS011;42950;52.134;5.578;2023-06-26T08:20:50;6.90;;;2.92;;
23720;SDS011;42950;52.134;5.578;2023-06-26T08:23:17;5.75;;;3.20;;
23720;SDS011;42950;52.134;5.578;2023-06-26T08:25:42;5.53;;;2.83;;
23720;SDS011;42950;52.134;5.578;2023-06-26T08:28:09;4.18;;;2.83;;
23720;SDS011;42950;52.134;5.578;2023-06-26T08:30:36;6.13;;;2.83;;
23720;SDS011;42950;52.134;5.578;2023-06-26T08:33:01;9.85;;;3.35;;
23720;SDS011;42950;52.134;5.578;2023-06-26T08:35:27;5.32;;;3.10;;
23720;SDS011;42950;52.134;5.578;2023-06-26T08:37:53;5.68;;;2.70;;
23720;SDS011;42950;52.134;5.578;2023-06-26T08:40:19;5.97;;;2.63;;
23720;SDS011;42950;52.134;5.578;2023-06-26T08:42:46;4.55;;;1.80;;
23720;SDS011;42950;52.134;5.578;2023-06-26T08:45:12;5.50;;;2.65;;
23720;SDS011;42950;52.134;5.578;2023-06-26T08:47:38;5.57;;;2.28;;
23720;SDS011;42950;52.134;5.578;2023-06-26T08:52:51;4.28;;;2.08;;
23720;SDS011;42950;52.134;5.578;2023-06-26T08:55:22;10.50;;;2.50;;
23720;SDS011;42950;52.134;5.578;2023-06-26T08:57:51;6.05;;;1.60;;
23720;SDS011;42950;52.134;5.578;2023-06-26T09:00:18;5.47;;;1.67;;
23720;SDS011;42950;52.134;5.578;2023-06-26T09:02:46;4.82;;;1.52;;
23720;SDS011;42950;52.134;5.578;2023-06-26T09:05:12;5.97;;;1.50;;
23720;SDS011;42950;52.134;5.578;2023-06-26T09:07:38;5.85;;;1.27;;
23720;SDS011;42950;52.134;5.578;2023-06-26T09:10:03;3.40;;;1.15;;
23720;SDS011;42950;52.134;5.578;2023-06-26T09:12:30;5.07;;;1.30;;
23720;SDS011;42950;52.134;5.578;2023-06-26T09:14:56;7.05;;;1.50;;
23720;SDS011;42950;52.134;5.578;2023-06-26T09:17:28;2.97;;;1.33;;
23720;SDS011;42950;52.134;5.578;2023-06-26T09:19:55;6.90;;;1.35;;
23720;SDS011;42950;52.134;5.578;2023-06-26T09:22:21;3.65;;;1.10;;
23720;SDS011;42950;52.134;5.578;2023-06-26T09:24:48;4.30;;;1.63;;
23720;SDS011;42950;52.134;5.578;2023-06-26T09:27:13;7.22;;;1.50;;
23720;SDS011;42950;52.134;5.578;2023-06-26T09:29:39;4.13;;;1.33;;
23720;SDS011;42950;52.134;5.578;2023-06-26T09:32:07;9.82;;;1.30;;
23720;SDS011;42950;52.134;5.578;2023-06-26T09:34:34;5.95;;;1.50;;
23720;SDS011;42950;52.134;5.578;2023-06-26T09:37:00;2.92;;;1.15;;
23720;SDS011;42950;52.134;5.578;2023-06-26T09:39:29;4.90;;;1.20;;
23720;SDS011;42950;52.134;5.578;2023-06-26T09:41:56;4.82;;;1.42;;
23720;SDS011;42950;52.134;5.578;2023-06-26T09:44:24;3.88;;;1.13;;
23720;SDS011;42950;52.134;5.578;2023-06-26T09:46:49;2.85;;;1.10;;
23720;SDS011;42950;52.134;5.578;2023-06-26T09:49:15;6.30;;;1.58;;
23720;SDS011;42950;52.134;5.578;2023-06-26T09:51:41;3.83;;;1.15;;
23720;SDS011;42950;52.134;5.578;2023-06-26T09:54:08;4.20;;;1.20;;
23720;SDS011;42950;52.134;5.578;2023-06-26T09:56:35;6.15;;;1.30;;
23720;SDS011;42950;52.134;5.578;2023-06-26T09:59:02;6.45;;;1.40;;
23720;SDS011;42950;52.134;5.578;2023-06-26T10:01:29;2.25;;;1.23;;
23720;SDS011;42950;52.134;5.578;2023-06-26T10:03:56;4.13;;;1.52;;
23720;SDS011;42950;52.134;5.578;2023-06-26T10:06:24;3.55;;;1.50;;
23720;SDS011;42950;52.134;5.578;2023-06-26T10:09:02;6.32;;;1.58;;
23720;SDS011;42950;52.134;5.578;2023-06-26T10:11:31;8.82;;;1.55;;
23720;SDS011;42950;52.134;5.578;2023-06-26T10:14:03;3.05;;;1.30;;
23720;SDS011;42950;52.134;5.578;2023-06-26T10:16:31;4.82;;;1.42;;
23720;SDS011;42950;52.134;5.578;2023-06-26T10:19:01;3.50;;;1.50;;
23720;SDS011;42950;52.134;5.578;2023-06-26T10:21:29;8.15;;;1.60;;
23720;SDS011;42950;52.134;5.578;2023-06-26T10:23:56;4.32;;;1.38;;
23720;SDS011;42950;52.134;5.578;2023-06-26T10:26:23;3.40;;;1.20;;
23720;SDS011;42950;52.134;5.578;2023-06-26T10:28:52;3.63;;;1.50;;
23720;SDS011;42950;52.134;5.578;2023-06-26T10:31:19;2.67;;;1.10;;
23720;SDS011;42950;52.134;5.578;2023-06-26T10:33:48;4.10;;;1.27;;
23720;SDS011;42950;52.134;5.578;2023-06-26T10:36:26;4.18;;;1.25;;
23720;SDS011;42950;52.134;5.578;2023-06-26T10:39:03;3.55;;;1.15;;
23720;SDS011;42950;52.134;5.578;2023-06-26T10:41:35;3.25;;;1.20;;
23720;SDS011;42950;52.134;5.578;2023-06-26T10:46:54;6.13;;;1.30;;
23720;SDS011;42950;52.134;5.578;2023-06-26T10:49:21;4.03;;;1.40;;
23720;SDS011;42950;52.134;5.578;2023-06-26T10:51:51;3.55;;;1.20;;
23720;SDS011;42950;52.134;5.578;2023-06-26T10:54:17;4.47;;;1.10;;
23720;SDS011;42950;52.134;5.578;2023-06-26T10:59:15;4.30;;;1.20;;
23720;SDS011;42950;52.134;5.578;2023-06-26T11:01:46;5.15;;;1.40;;
23720;SDS011;42950;52.134;5.578;2023-06-26T11:04:21;3.33;;;1.20;;
23720;SDS011;42950;52.134;5.578;2023-06-26T11:07:16;3.90;;;1.42;;
23720;SDS011;42950;52.134;5.578;2023-06-26T11:10:00;2.15;;;1.10;;
23720;SDS011;42950;52.134;5.578;2023-06-26T11:15:09;4.63;;;1.15;;
23720;SDS011;42950;52.134;5.578;2023-06-26T11:17:36;5.40;;;1.20;;
23720;SDS011;42950;52.134;5.578;2023-06-26T11:20:03;5.57;;;1.50;;
23720;SDS011;42950;52.134;5.578;2023-06-26T11:22:31;2.30;;;1.13;;
23720;SDS011;42950;52.134;5.578;2023-06-26T11:25:00;3.42;;;1.30;;
23720;SDS011;42950;52.134;5.578;2023-06-26T11:27:31;4.03;;;1.30;;
23720;SDS011;42950;52.134;5.578;2023-06-26T11:29:57;1.77;;;1.00;;
23720;SDS011;42950;52.134;5.578;2023-06-26T11:32:23;4.60;;;1.10;;
23720;SDS011;42950;52.134;5.578;2023-06-26T11:34:52;3.03;;;1.00;;
23720;SDS011;42950;52.134;5.578;2023-06-26T11:37:19;4.78;;;1.27;;
23720;SDS011;42950;52.134;5.578;2023-06-26T11:39:46;2.67;;;1.00;;
23720;SDS011;42950;52.134;5.578;2023-06-26T11:42:11;6.22;;;1.17;;
23720;SDS011;42950;52.134;5.578;2023-06-26T11:44:41;6.85;;;1.20;;
23720;SDS011;42950;52.134;5.578;2023-06-26T11:47:20;4.90;;;1.05;;
23720;SDS011;42950;52.134;5.578;2023-06-26T11:49:46;2.95;;;1.20;;
23720;SDS011;42950;52.134;5.578;2023-06-26T11:52:14;4.32;;;1.00;;
23720;SDS011;42950;52.134;5.578;2023-06-26T11:54:41;7.78;;;1.30;;
23720;SDS011;42950;52.134;5.578;2023-06-26T11:57:07;3.90;;;1.02;;
23720;SDS011;42950;52.134;5.578;2023-06-26T11:59:37;5.38;;;1.30;;
23720;SDS011;42950;52.134;5.578;2023-06-26T12:02:14;3.78;;;1.15;;
23720;SDS011;42950;52.134;5.578;2023-06-26T12:04:41;5.07;;;1.00;;
23720;SDS011;42950;52.134;5.578;2023-06-26T12:07:08;3.83;;;0.90;;
23720;SDS011;42950;52.134;5.578;2023-06-26T12:09:45;2.85;;;1.00;;
23720;SDS011;42950;52.134;5.578;2023-06-26T12:12:14;4.47;;;0.90;;
23720;SDS011;42950;52.134;5.578;2023-06-26T12:14:41;3.42;;;1.08;;
23720;SDS011;42950;52.134;5.578;2023-06-26T12:17:12;3.88;;;1.10;;
23720;SDS011;42950;52.134;5.578;2023-06-26T12:19:43;5.28;;;0.93;;
23720;SDS011;42950;52.134;5.578;2023-06-26T12:22:10;5.13;;;1.13;;
23720;SDS011;42950;52.134;5.578;2023-06-26T12:24:36;5.45;;;1.13;;
23720;SDS011;42950;52.134;5.578;2023-06-26T12:27:07;3.92;;;1.23;;
23720;SDS011;42950;52.134;5.578;2023-06-26T12:29:34;1.55;;;0.88;;
23720;SDS011;42950;52.134;5.578;2023-06-26T12:32:01;3.65;;;0.90;;
23720;SDS011;42950;52.134;5.578;2023-06-26T12:34:28;4.28;;;1.42;;
23720;SDS011;42950;52.134;5.578;2023-06-26T12:37:18;3.47;;;0.88;;
23720;SDS011;42950;52.134;5.578;2023-06-26T12:39:50;2.88;;;0.85;;
23720;SDS011;42950;52.134;5.578;2023-06-26T12:42:19;3.15;;;0.80;;
23720;SDS011;42950;52.134;5.578;2023-06-26T12:44:46;7.90;;;0.93;;
23720;SDS011;42950;52.134;5.578;2023-06-26T12:47:13;3.60;;;0.90;;
23720;SDS011;42950;52.134;5.578;2023-06-26T12:49:41;3.13;;;1.10;;
23720;SDS011;42950;52.134;5.578;2023-06-26T12:52:12;1.30;;;0.80;;
23720;SDS011;42950;52.134;5.578;2023-06-26T12:54:39;5.70;;;1.00;;
23720;SDS011;42950;52.134;5.578;2023-06-26T12:57:06;1.77;;;0.80;;
23720;SDS011;42950;52.134;5.578;2023-06-26T12:59:33;2.50;;;0.77;;
23720;SDS011;42950;52.134;5.578;2023-06-26T13:01:59;5.20;;;0.93;;
23720;SDS011;42950;52.134;5.578;2023-06-26T13:04:25;4.53;;;0.80;;
23720;SDS011;42950;52.134;5.578;2023-06-26T13:06:51;4.80;;;0.95;;
23720;SDS011;42950;52.134;5.578;2023-06-26T13:09:19;4.57;;;0.80;;
23720;SDS011;42950;52.134;5.578;2023-06-26T13:11:45;3.22;;;0.90;;
23720;SDS011;42950;52.134;5.578;2023-06-26T13:14:11;2.78;;;0.70;;
23720;SDS011;42950;52.134;5.578;2023-06-26T13:16:37;1.80;;;0.80;;
23720;SDS011;42950;52.134;5.578;2023-06-26T13:19:02;2.90;;;0.70;;
23720;SDS011;42950;52.134;5.578;2023-06-26T13:21:28;4.47;;;0.70;;
23720;SDS011;42950;52.134;5.578;2023-06-26T13:23:54;4.90;;;0.98;;
23720;SDS011;42950;52.134;5.578;2023-06-26T13:26:20;3.05;;;0.90;;
23720;SDS011;42950;52.134;5.578;2023-06-26T13:28:47;6.18;;;0.88;;
23720;SDS011;42950;52.134;5.578;2023-06-26T13:31:13;2.45;;;0.77;;
23720;SDS011;42950;52.134;5.578;2023-06-26T13:33:39;3.88;;;0.85;;
23720;SDS011;42950;52.134;5.578;2023-06-26T13:36:05;2.45;;;0.90;;
23720;SDS011;42950;52.134;5.578;2023-06-26T13:38:32;6.07;;;0.95;;
23720;SDS011;42950;52.134;5.578;2023-06-26T13:40:58;2.95;;;0.80;;
23720;SDS011;42950;52.134;5.578;2023-06-26T13:43:26;4.30;;;0.90;;
23720;SDS011;42950;52.134;5.578;2023-06-26T13:45:52;2.72;;;0.90;;
23720;SDS011;42950;52.134;5.578;2023-06-26T13:48:18;4.85;;;1.08;;
23720;SDS011;42950;52.134;5.578;2023-06-26T13:50:44;2.95;;;1.00;;
23720;SDS011;42950;52.134;5.578;2023-06-26T13:53:10;2.45;;;1.10;;
23720;SDS011;42950;52.134;5.578;2023-06-26T13:55:36;3.88;;;0.85;;
23720;SDS011;42950;52.134;5.578;2023-06-26T13:58:03;3.28;;;0.90;;
23720;SDS011;42950;52.134;5.578;2023-06-26T14:00:32;1.95;;;1.10;;
23720;SDS011;42950;52.134;5.578;2023-06-26T14:02:59;1.35;;;0.60;;
23720;SDS011;42950;52.134;5.578;2023-06-26T14:05:26;2.08;;;0.88;;
23720;SDS011;42950;52.134;5.578;2023-06-26T14:07:52;2.10;;;0.77;;
23720;SDS011;42950;52.134;5.578;2023-06-26T14:10:19;2.50;;;1.00;;
23720;SDS011;42950;52.134;5.578;2023-06-26T14:12:45;2.80;;;1.10;;
23720;SDS011;42950;52.134;5.578;2023-06-26T14:15:10;4.82;;;0.90;;
23720;SDS011;42950;52.134;5.578;2023-06-26T14:17:36;5.43;;;1.00;;
23720;SDS011;42950;52.134;5.578;2023-06-26T14:20:04;2.67;;;0.90;;
23720;SDS011;42950;52.134;5.578;2023-06-26T14:22:41;3.97;;;0.95;;
23720;SDS011;42950;52.134;5.578;2023-06-26T14:25:09;2.58;;;0.82;;
23720;SDS011;42950;52.134;5.578;2023-06-26T14:27:35;3.05;;;0.88;;
23720;SDS011;42950;52.134;5.578;2023-06-26T14:30:02;3.05;;;0.85;;
23720;SDS011;42950;52.134;5.578;2023-06-26T14:32:28;1.33;;;0.75;;
23720;SDS011;42950;52.134;5.578;2023-06-26T14:34:54;2.35;;;1.00;;
23720;SDS011;42950;52.134;5.578;2023-06-26T14:37:20;2.20;;;0.77;;
23720;SDS011;42950;52.134;5.578;2023-06-26T14:39:46;3.00;;;0.90;;
23720;SDS011;42950;52.134;5.578;2023-06-26T14:42:11;2.38;;;0.95;;
23720;SDS011;42950;52.134;5.578;2023-06-26T14:44:37;2.83;;;1.00;;
23720;SDS011;42950;52.134;5.578;2023-06-26T14:47:03;2.90;;;0.90;;
23720;SDS011;42950;52.134;5.578;2023-06-26T14:49:29;1.80;;;0.70;;
23720;SDS011;42950;52.134;5.578;2023-06-26T14:51:55;3.65;;;1.02;;
23720;SDS011;42950;52.134;5.578;2023-06-26T14:54:20;3.72;;;0.80;;
23720;SDS011;42950;52.134;5.578;2023-06-26T14:56:46;2.20;;;0.80;;
23720;SDS011;42950;52.134;5.578;2023-06-26T14:59:11;2.50;;;0.90;;
23720;SDS011;42950;52.134;5.578;2023-06-26T15:01:37;2.45;;;1.00;;